Time;durP1;ratioP1;P1;durP2;ratioP2;P2;SDS_P1;SDS_P2;PMS_P1;PMS_P2;Temp;Humidity;BMP_temperature;BMP_pressure;BME280_temperature;BME280_humidity;BME280_pressure;Samples;Min_cycle;Max_cycle;Signal;HPM_P1;HPM_P2
2022/05/29 00:02:20;;;;;;;7.95;2.15;;;;;;;19.29;74.73;100497.22;6193558;23;20032;-85
2022/05/29 00:04:46;;;;;;;1.83;1.73;;;;;;;19.74;75.02;100559.69;6187417;23;20352;-84
2022/05/29 00:07:16;;;;;;;3.28;2.17;;;;;;;18.53;74.82;100369.56;6209703;23;20032;-84
2022/05/29 00:09:52;;;;;;;2.90;1.67;;;;;;;19.97;74.79;100581.78;6194393;23;20525;-84
2022/05/29 00:12:21;;;;;;;2.15;1.63;;;;;;;19.43;75.21;100510.56;6194357;23;20562;-84
2022/05/29 00:14:48;;;;;;;2.88;1.52;;;;;;;19.11;74.55;100462.75;6194001;23;20031;-85
2022/05/29 00:17:17;;;;;;;2.60;1.73;;;;;;;19.48;75.91;100511.84;6183207;23;20024;-85
2022/05/29 00:19:44;;;;;;;6.00;2.00;;;;;;;18.54;75.24;100357.81;6193269;23;20020;-85
2022/05/29 00:22:16;;;;;;;2.58;1.80;;;;;;;18.57;75.70;100365.47;6183276;23;20530;-83
2022/05/29 00:24:46;;;;;;;;;;;;;;;19.83;74.75;100556.66;6194541;23;20024;-83
2022/05/29 00:27:16;;;;;;;5.03;2.33;;;;;;;19.25;75.82;100474.41;6193553;23;19941;-85
2022/05/29 00:29:43;;;;;;;2.45;1.90;;;;;;;18.75;75.55;100405.31;6221108;23;20023;-83
2022/05/29 00:32:11;;;;;;;4.57;1.98;;;;;;;18.91;75.83;100431.13;6221164;23;20099;-85
2022/05/29 00:34:37;;;;;;;3.20;1.95;;;;;;;19.18;75.80;100488.66;6193801;23;20017;-84
2022/05/29 00:37:06;;;;;;;4.65;1.98;;;;;;;18.69;76.32;100410.63;6210191;23;20020;-88
2022/05/29 00:39:34;;;;;;;3.05;1.52;;;;;;;18.96;75.97;100460.16;6183127;23;20054;-86
2022/05/29 00:42:10;;;;;;;4.53;1.70;;;;;;;18.44;76.49;100397.59;6194403;23;20468;-86
2022/05/29 00:44:38;;;;;;;2.65;1.55;;;;;;;17.99;74.73;100302.97;6193387;23;20067;-85
2022/05/29 00:47:14;;;;;;;1.92;1.42;;;;;;;18.82;74.54;100461.06;6219590;23;20017;-85
2022/05/29 00:49:42;;;;;;;1.85;1.60;;;;;;;18.10;75.63;100388.38;6193069;23;20027;-84
2022/05/29 00:52:22;;;;;;;4.45;1.70;;;;;;;18.17;75.68;100398.38;6193079;23;20031;-84
2022/05/29 00:54:55;;;;;;;1.95;1.55;;;;;;;18.55;76.38;100466.16;6193832;23;20017;-86
2022/05/29 00:57:34;;;;;;;1.83;1.48;;;;;;;18.65;75.94;100484.66;6184649;23;20017;-81
2022/05/29 01:00:16;;;;;;;2.75;1.60;;;;;;;18.58;75.61;100474.66;6230394;23;20028;-84
2022/05/29 01:02:44;;;;;;;4.93;2.03;;;;;;;18.57;75.50;100483.75;6206782;23;20012;-86
2022/05/29 01:05:13;;;;;;;2.83;1.60;;;;;;;17.65;76.06;100339.34;6210949;23;20036;-87
2022/05/29 01:07:45;;;;;;;3.95;2.17;;;;;;;18.86;76.22;100546.53;6247068;22;20073;-81
2022/05/29 01:10:12;;;;;;;6.35;1.98;;;;;;;17.32;75.55;100306.72;6213525;23;20395;-85
2022/05/29 01:12:59;;;;;;;3.85;2.40;;;;;;;18.60;74.54;100535.50;6224951;23;20016;-83
2022/05/29 01:16:04;;;;;;;3.03;2.50;;;;;;;17.32;74.68;100322.00;6202254;23;20020;-85
2022/05/29 01:18:47;;;;;;;4.70;2.58;;;;;;;18.01;75.43;100478.19;6061207;23;20023;-83
2022/05/29 01:21:46;;;;;;;4.22;2.20;;;;;;;18.31;76.46;100537.22;6173485;23;20021;-82
2022/05/29 01:24:34;;;;;;;5.40;2.45;;;;;;;18.08;76.24;100500.59;6062565;23;20082;-83
2022/05/29 01:27:19;;;;;;;4.85;2.35;;;;;;;18.24;77.17;100539.00;6219050;23;20338;-83
2022/05/29 01:29:58;;;;;;;6.05;2.80;;;;;;;18.10;76.45;100541.50;6182412;23;20475;-83
2022/05/29 01:32:37;;;;;;;6.35;2.50;;;;;;;17.46;77.00;100448.09;6192803;23;20025;-83
2022/05/29 01:35:12;;;;;;;5.13;2.40;;;;;;;17.07;76.58;100363.38;6192096;23;20017;-83
2022/05/29 01:38:04;;;;;;;2.70;2.13;;;;;;;17.14;76.45;100368.81;6192660;23;20021;-83
2022/05/29 01:40:53;;;;;;;4.57;2.35;;;;;;;18.04;76.16;100504.66;6182412;23;20517;-83
2022/05/29 01:43:35;;;;;;;8.98;2.38;;;;;;;18.11;76.03;100516.31;6182658;23;20212;-82
2022/05/29 01:46:36;;;;;;;3.03;2.30;;;;;;;17.92;76.39;100482.00;6182717;23;20025;-84
2022/05/29 01:49:16;;;;;;;2.55;2.35;;;;;;;18.13;75.88;100508.06;6157434;23;20033;-84
2022/05/29 01:51:53;;;;;;;4.23;2.13;;;;;;;17.83;76.50;100467.81;6193122;23;20504;-82
2022/05/29 01:54:28;;;;;;;7.25;2.15;;;;;;;17.03;77.51;100329.88;6220438;23;20437;-84
2022/05/29 01:57:16;;;;;;;4.28;1.90;;;;;;;17.24;76.59;100326.44;6196515;23;20032;-83
2022/05/29 01:59:57;;;;;;;2.72;1.77;;;;;;;17.89;76.60;100460.88;6182175;23;20028;-83
2022/05/29 02:02:30;;;;;;;3.40;2.00;;;;;;;17.86;77.50;100463.94;6208207;23;20025;-82
2022/05/29 02:05:01;;;;;;;2.72;2.00;;;;;;;17.17;77.05;100362.25;6191999;23;20769;-83
2022/05/29 02:07:48;;;;;;;2.80;1.88;;;;;;;17.44;77.59;100401.00;6192580;23;20020;-83
2022/05/29 02:10:24;;;;;;;2.58;2.03;;;;;;;17.88;77.85;100461.91;6192442;23;20024;-83
2022/05/29 02:13:15;;;;;;;3.10;2.10;;;;;;;16.62;77.69;100265.13;6192505;23;20040;-83
2022/05/29 02:16:04;;;;;;;4.72;2.40;;;;;;;17.29;78.53;100331.25;6192256;23;20013;-82
2022/05/29 02:18:36;;;;;;;6.55;2.20;;;;;;;18.37;75.80;100463.91;6218532;23;20236;-84
2022/05/29 02:21:11;;;;;;;6.93;2.42;;;;;;;17.83;76.89;100434.78;6192035;23;20024;-82
2022/05/29 02:23:49;;;;;;;6.03;2.22;;;;;;;17.77;78.19;100432.78;6186376;23;20506;-83
2022/05/29 02:26:25;;;;;;;4.43;2.40;;;;;;;17.37;77.39;100351.78;6208545;23;20020;-85
2022/05/29 02:28:58;;;;;;;3.55;2.92;;;;;;;17.82;78.26;100438.50;6192361;23;20047;-84
2022/05/29 02:31:37;;;;;;;5.35;2.28;;;;;;;17.83;78.17;100443.66;6192470;23;20027;-85
2022/05/29 02:34:25;;;;;;;2.17;1.98;;;;;;;17.01;77.24;100288.19;6218607;23;20066;-84
2022/05/29 02:37:01;;;;;;;2.45;2.10;;;;;;;16.05;78.42;100180.00;6182129;23;20024;-84
2022/05/29 02:39:52;;;;;;;2.58;2.38;;;;;;;16.99;78.10;100322.38;6192149;23;20017;-83
2022/05/29 02:42:42;;;;;;;3.40;2.10;;;;;;;16.99;78.00;100331.28;6207978;23;20452;-83
2022/05/29 02:45:33;;;;;;;5.10;2.67;;;;;;;17.68;78.39;100435.59;6192046;23;20021;-84
2022/05/29 02:48:27;;;;;;;2.90;2.63;;;;;;;17.62;78.43;100433.66;6208615;23;20051;-84
2022/05/29 02:51:05;;;;;;;3.65;2.63;;;;;;;16.65;78.95;100265.59;6191899;23;20030;-85
2022/05/29 02:53:33;;;;;;;4.57;2.58;;;;;;;17.64;78.36;100417.34;6192139;23;20444;-83
2022/05/29 02:56:05;;;;;;;3.65;2.85;;;;;;;17.36;77.12;100377.78;6192125;23;20025;-84
2022/05/29 02:58:34;;;;;;;4.20;2.85;;;;;;;17.92;77.37;100439.03;6218057;23;20540;-85
2022/05/29 03:01:07;;;;;;;2.80;2.50;;;;;;;17.82;76.73;100419.69;6192246;23;20028;-83
2022/05/29 03:03:44;;;;;;;5.00;2.83;;;;;;;17.20;76.76;100325.16;6191764;23;20024;-82
2022/05/29 03:06:34;;;;;;;5.35;2.85;;;;;;;17.78;77.18;100386.97;6217837;23;20440;-84
2022/05/29 03:09:26;;;;;;;4.05;3.47;;;;;;;17.98;76.44;100397.97;6191512;23;20176;-83
2022/05/29 03:11:53;;;;;;;10.30;3.75;;;;;;;17.11;77.83;100261.91;6209234;23;20021;-84
2022/05/29 03:14:38;;;;;;;6.93;3.95;;;;;;;17.87;77.36;100379.69;6194523;23;20016;-84
2022/05/29 03:17:13;;;;;;;5.45;3.60;;;;;;;17.62;76.60;100342.41;6186978;23;20097;-83
2022/05/29 03:19:47;;;;;;;8.70;4.10;;;;;;;17.90;77.36;100392.72;6186410;23;20079;-86
2022/05/29 03:22:42;;;;;;;3.90;3.60;;;;;;;17.35;77.62;100321.63;6185870;23;20028;-85
2022/05/29 03:25:18;;;;;;;3.58;3.20;;;;;;;17.37;77.92;100338.38;6181754;23;20020;-82
2022/05/29 03:27:47;;;;;;;3.65;3.35;;;;;;;16.71;78.30;100237.22;6195126;23;20086;-82
2022/05/29 03:30:26;;;;;;;4.15;3.40;;;;;;;17.63;77.72;100368.22;6209307;23;20102;-82
2022/05/29 03:32:57;;;;;;;5.65;3.75;;;;;;;17.20;77.90;100319.78;6191580;23;20330;-84
2022/05/29 03:35:28;;;;;;;4.50;3.53;;;;;;;17.56;78.84;100386.09;6191487;23;20020;-84
2022/05/29 03:37:57;;;;;;;5.97;3.40;;;;;;;17.33;79.33;100327.19;6191555;23;20047;-84
2022/05/29 03:40:27;;;;;;;5.70;3.65;;;;;;;17.66;78.20;100375.88;6191244;23;20021;-83
2022/05/29 03:42:55;;;;;;;5.88;3.63;;;;;;;17.13;77.99;100277.81;6181291;23;20388;-82
2022/05/29 03:45:22;;;;;;;7.60;3.85;;;;;;;16.22;77.75;100128.78;6181893;23;20413;-80
2022/05/29 03:47:50;;;;;;;4.05;3.72;;;;;;;16.16;77.86;100134.03;6192313;23;20067;-82
2022/05/29 03:50:18;;;;;;;7.18;3.90;;;;;;;17.35;78.29;100321.63;6218474;23;20076;-83
2022/05/29 03:52:46;;;;;;;3.67;3.20;;;;;;;17.07;78.13;100309.72;6181641;23;20021;-83
2022/05/29 03:55:21;;;;;;;4.47;3.53;;;;;;;15.91;78.22;100104.84;6218269;23;20047;-82
2022/05/29 03:57:49;;;;;;;4.18;2.92;;;;;;;16.45;78.28;100184.91;6209041;23;20033;-81
2022/05/29 04:00:18;;;;;;;5.35;3.42;;;;;;;15.81;78.15;100113.13;6192325;23;20086;-82
2022/05/29 04:02:46;;;;;;;6.57;3.10;;;;;;;17.32;78.08;100332.72;6210819;23;20028;-85
2022/05/29 04:05:19;;;;;;;9.55;2.95;;;;;;;16.42;76.84;100193.31;6197331;23;20016;-85
2022/05/29 04:13:19;;;;;;;5.85;3.17;;;;;;;16.98;76.87;100289.38;6220818;23;20375;-85
2022/05/29 04:15:47;;;;;;;8.50;3.03;;;;;;;17.37;75.55;100335.69;6220050;23;20016;-84
2022/05/29 04:18:15;;;;;;;3.92;2.88;;;;;;;17.23;76.45;100343.56;6191955;23;20043;-83
2022/05/29 04:20:44;;;;;;;6.22;3.38;;;;;;;17.07;76.32;100314.25;6207984;23;20044;-85
2022/05/29 04:23:11;;;;;;;5.00;3.38;;;;;;;17.33;77.03;100334.38;6191975;23;20090;-83
2022/05/29 04:25:38;;;;;;;6.13;3.15;;;;;;;17.57;75.23;100331.38;6193122;23;20020;-82
2022/05/29 04:28:07;;;;;;;5.43;2.88;;;;;;;17.52;74.64;100341.84;6192734;23;20050;-82
2022/05/29 04:30:34;;;;;;;5.78;3.38;;;;;;;17.40;74.56;100320.03;6207447;23;20017;-83
2022/05/29 04:33:00;;;;;;;4.88;2.78;;;;;;;17.43;74.44;100324.22;6191493;23;20092;-83
2022/05/29 04:35:31;;;;;;;4.88;3.03;;;;;;;17.30;74.32;100323.00;6181296;23;20099;-82
2022/05/29 04:37:58;;;;;;;2.53;2.33;;;;;;;17.39;74.79;100344.38;6191754;23;20016;-80
2022/05/29 04:40:25;;;;;;;3.53;2.60;;;;;;;17.41;75.20;100355.75;6181152;23;20029;-82
2022/05/29 04:42:52;;;;;;;5.47;2.97;;;;;;;15.96;74.43;100118.50;6192880;23;20060;-81
2022/05/29 04:45:19;;;;;;;4.45;3.35;;;;;;;17.30;73.57;100325.69;6192976;23;20052;-81
2022/05/29 04:47:46;;;;;;;8.10;2.60;;;;;;;17.29;73.53;100334.78;6183267;23;20087;-80
2022/05/29 04:50:13;;;;;;;10.68;2.97;;;;;;;17.42;73.38;100371.66;6192544;23;20020;-79
2022/05/29 04:52:42;;;;;;;3.17;2.40;;;;;;;17.09;74.04;100314.91;6193923;23;20082;-81
2022/05/29 04:55:09;;;;;;;6.63;2.55;;;;;;;17.56;73.89;100366.47;6209956;23;20021;-80
2022/05/29 04:57:40;;;;;;;2.97;2.55;;;;;;;17.42;73.01;100338.63;6194541;23;20099;-80
2022/05/29 05:00:08;;;;;;;3.65;2.28;;;;;;;17.66;72.92;100351.72;6209527;23;20468;-81
2022/05/29 05:02:35;;;;;;;4.43;2.90;;;;;;;17.75;73.66;100351.63;6219626;23;20030;-80
2022/05/29 05:05:02;;;;;;;5.43;2.65;;;;;;;17.41;72.69;100310.16;6182696;23;20082;-81
2022/05/29 05:07:29;;;;;;;2.83;2.30;;;;;;;17.53;72.26;100316.69;6192751;23;20086;-81
2022/05/29 05:09:56;;;;;;;7.45;2.60;;;;;;;17.63;72.44;100327.13;6182971;23;20028;-80
2022/05/29 05:12:22;;;;;;;6.55;2.30;;;;;;;17.26;72.30;100268.09;6183367;23;20024;-80
2022/05/29 05:14:49;;;;;;;5.35;2.42;;;;;;;17.15;72.98;100262.38;6209758;23;20083;-81
2022/05/29 05:17:16;;;;;;;7.63;2.83;;;;;;;17.02;72.76;100234.38;6209142;23;20028;-81
2022/05/29 05:19:42;;;;;;;6.03;2.60;;;;;;;17.52;72.57;100323.91;6192389;23;20456;-81
2022/05/29 05:22:09;;;;;;;4.05;2.70;;;;;;;17.68;72.54;100351.56;6219140;23;20020;-81
2022/05/29 05:24:38;;;;;;;5.35;2.72;;;;;;;17.58;73.28;100332.22;6192457;23;20017;-81
2022/05/29 05:27:06;;;;;;;6.22;2.83;;;;;;;17.20;73.84;100254.59;6192657;23;20480;-81
2022/05/29 05:29:40;;;;;;;6.65;2.70;;;;;;;17.70;72.85;100344.97;6211508;23;20023;-82
2022/05/29 05:32:07;;;;;;;7.13;2.45;;;;;;;17.66;73.11;100341.00;6214603;23;20028;-82
2022/05/29 05:34:34;;;;;;;4.60;3.15;;;;;;;17.63;72.83;100329.81;6200854;23;20044;-82
2022/05/29 05:37:02;;;;;;;5.40;2.53;;;;;;;16.76;72.69;100199.16;6216980;23;20191;-82
2022/05/29 05:39:29;;;;;;;5.95;2.85;;;;;;;17.76;73.58;100348.75;6190332;23;20055;-82
2022/05/29 05:41:58;;;;;;;5.70;4.55;;;;;;;17.07;73.68;100225.75;6188300;23;20024;-82
2022/05/29 05:44:26;;;;;;;4.28;2.55;;;;;;;17.94;73.49;100353.72;6192559;23;20012;-82
2022/05/29 05:46:53;;;;;;;8.18;2.67;;;;;;;16.91;72.98;100175.03;6219287;23;20021;-82
2022/05/29 05:49:26;;;;;;;7.05;2.67;;;;;;;17.06;72.99;100210.66;6193937;23;20074;-83
2022/05/29 05:51:55;;;;;;;5.78;2.72;;;;;;;17.30;72.17;100229.09;6191909;23;20511;-82
2022/05/29 05:54:21;;;;;;;3.30;2.30;;;;;;;17.95;72.87;100344.63;6218453;23;20020;-81
2022/05/29 05:56:52;;;;;;;4.97;2.85;;;;;;;17.77;73.82;100314.66;6192283;23;20023;-82
2022/05/29 05:59:18;;;;;;;4.78;2.30;;;;;;;17.43;73.06;100249.09;6217953;23;20020;-82
2022/05/29 06:01:45;;;;;;;9.70;3.03;;;;;;;17.26;72.57;100227.84;6191955;23;20032;-82
2022/05/29 06:04:12;;;;;;;10.45;3.15;;;;;;;18.10;72.18;100336.53;6192501;23;20021;-82
2022/05/29 06:06:39;;;;;;;7.43;2.88;;;;;;;18.11;71.97;100332.81;6192857;23;20372;-81
2022/05/29 06:09:06;;;;;;;8.18;2.38;;;;;;;18.17;71.69;100328.53;6218605;23;20533;-83
2022/05/29 06:11:33;;;;;;;4.68;2.38;;;;;;;18.13;70.97;100330.75;6192550;23;20083;-82
2022/05/29 06:14:00;;;;;;;10.20;3.40;;;;;;;17.88;70.40;100273.91;6218338;23;20498;-82
2022/05/29 06:16:27;;;;;;;6.57;2.63;;;;;;;18.11;71.19;100330.97;6192099;23;20082;-82
2022/05/29 06:18:53;;;;;;;4.72;2.78;;;;;;;18.21;71.22;100356.69;6182739;23;20016;-81
2022/05/29 06:21:20;;;;;;;5.75;2.78;;;;;;;18.09;70.48;100335.69;6218859;23;20021;-81
2022/05/29 06:23:47;;;;;;;5.95;3.03;;;;;;;17.98;70.43;100320.09;6220318;23;20051;-82
2022/05/29 06:26:14;;;;;;;6.20;2.60;;;;;;;17.96;70.47;100308.69;6219205;23;20020;-81
2022/05/29 06:28:41;;;;;;;5.18;2.92;;;;;;;18.10;71.26;100331.16;6192312;23;20141;-81
2022/05/29 06:31:11;;;;;;;5.20;2.70;;;;;;;18.12;71.38;100332.63;6181908;23;20031;-82
2022/05/29 06:33:38;;;;;;;6.07;3.35;;;;;;;17.98;72.12;100317.41;6182680;23;20052;-81
2022/05/29 06:36:10;;;;;;;8.23;2.70;;;;;;;17.46;72.47;100227.22;6182042;23;20028;-82
2022/05/29 06:38:36;;;;;;;;;;;;;;;18.15;71.09;100334.91;6192546;23;20024;-82
2022/05/29 06:41:05;;;;;;;7.35;2.85;;;;;;;18.28;71.46;100338.78;6181757;23;19915;-82
2022/05/29 06:43:32;;;;;;;7.80;2.78;;;;;;;18.35;70.87;100335.13;6181975;23;20020;-82
2022/05/29 06:46:00;;;;;;;5.28;3.15;;;;;;;17.98;70.93;100269.06;6182320;23;20304;-80
2022/05/29 06:48:27;;;;;;;9.27;3.10;;;;;;;18.17;71.44;100280.19;6191447;23;20441;-82
2022/05/29 06:50:54;;;;;;;8.30;2.80;;;;;;;18.09;71.03;100257.78;6209029;23;20090;-82
2022/05/29 06:53:21;;;;;;;7.05;3.13;;;;;;;18.24;70.89;100284.56;6191364;23;20043;-82
2022/05/29 06:55:54;;;;;;;5.60;3.05;;;;;;;18.52;71.10;100319.53;6191402;23;20013;-81
2022/05/29 06:58:23;;;;;;;13.55;3.20;;;;;;;17.09;71.81;100086.97;6191264;23;20016;-82
2022/05/29 07:09:13;;;;;;;7.72;2.58;;;;;;;18.70;68.40;100313.66;6207516;23;20071;-82
2022/05/29 07:11:41;;;;;;;7.95;2.92;;;;;;;18.63;67.67;100272.44;6181499;23;20048;-81
2022/05/29 07:14:08;;;;;;;5.55;2.35;;;;;;;18.75;67.74;100318.44;6181376;23;20027;-80
2022/05/29 07:16:36;;;;;;;7.60;2.55;;;;;;;18.91;68.13;100328.94;6207167;23;20377;-81
2022/05/29 07:19:04;;;;;;;8.13;2.58;;;;;;;18.41;67.67;100255.56;6190989;23;20023;-81
2022/05/29 07:21:36;;;;;;;15.82;3.40;;;;;;;18.22;68.59;100206.03;6217353;23;20363;-81
2022/05/29 07:24:03;;;;;;;4.30;2.33;;;;;;;18.85;68.63;100313.56;6191233;23;20110;-81
2022/05/29 07:26:30;;;;;;;6.18;2.40;;;;;;;18.90;67.96;100318.34;6181197;23;20448;-81
2022/05/29 07:28:57;;;;;;;4.60;2.40;;;;;;;18.59;67.24;100273.88;6181421;23;20345;-79
2022/05/29 07:31:24;;;;;;;12.73;2.70;;;;;;;18.71;68.70;100279.53;6191631;23;20031;-80
2022/05/29 07:33:52;;;;;;;7.60;2.78;;;;;;;18.87;67.92;100287.31;6191731;23;20020;-80
2022/05/29 07:36:19;;;;;;;7.43;2.47;;;;;;;19.02;67.60;100314.09;6181590;23;20024;-81
2022/05/29 07:38:45;;;;;;;10.68;2.45;;;;;;;18.55;67.65;100248.41;6181851;23;20044;-82
2022/05/29 07:44:00;;;;;;;9.77;2.92;;;;;;;18.68;66.96;100253.03;6219191;23;20337;-82
2022/05/29 07:46:26;;;;;;;5.65;2.38;;;;;;;18.08;67.13;100164.81;6221027;23;20024;-81
2022/05/29 07:48:53;;;;;;;7.75;2.65;;;;;;;18.97;66.94;100301.22;6195957;23;20085;-82
2022/05/29 07:51:20;;;;;;;4.40;2.17;;;;;;;18.27;67.16;100208.13;6213562;23;20027;-84
2022/05/29 07:53:47;;;;;;;9.13;2.88;;;;;;;17.48;67.06;100074.91;6205158;23;20024;-83
2022/05/29 07:56:16;;;;;;;9.52;2.67;;;;;;;19.07;66.33;100326.94;6213749;23;20021;-83
2022/05/29 07:58:44;;;;;;;6.55;2.55;;;;;;;19.06;66.68;100317.22;6208976;23;20021;-82
2022/05/29 08:01:11;;;;;;;7.15;2.83;;;;;;;18.42;66.28;100219.59;6222344;23;20028;-82
2022/05/29 08:03:40;;;;;;;10.85;3.17;;;;;;;17.55;66.67;100065.06;6193006;23;20055;-82
2022/05/29 08:06:07;;;;;;;9.38;2.60;;;;;;;19.15;67.11;100324.06;6191346;23;20250;-81
2022/05/29 08:08:35;;;;;;;5.35;2.50;;;;;;;18.75;67.09;100267.34;6217280;23;20356;-81
2022/05/29 08:11:02;;;;;;;8.68;2.88;;;;;;;18.45;67.07;100213.84;6190715;23;20052;-82
2022/05/29 08:13:31;;;;;;;4.65;2.45;;;;;;;18.69;67.26;100243.94;6189400;23;20019;-84
2022/05/29 08:15:58;;;;;;;9.00;2.40;;;;;;;18.48;66.81;100216.13;6191850;23;20021;-82
2022/05/29 08:18:28;;;;;;;10.60;3.22;;;;;;;17.67;67.34;100073.38;6208666;23;20075;-80
2022/05/29 08:20:55;;;;;;;5.28;2.50;;;;;;;18.58;67.83;100227.34;6191310;23;20028;-82
2022/05/29 08:23:26;;;;;;;6.95;3.10;;;;;;;18.95;67.83;100281.75;6193161;23;20021;-83
2022/05/29 08:31:24;;;;;;;6.55;3.35;;;;;;;18.62;67.03;100218.88;6218924;23;20456;-81
2022/05/29 08:33:51;;;;;;;9.43;2.88;;;;;;;17.80;66.90;100083.41;6192846;23;20020;-82
2022/05/29 08:36:24;;;;;;;7.65;3.33;;;;;;;18.79;66.05;100228.31;6219569;23;20042;-81
2022/05/29 08:38:56;;;;;;;7.50;2.65;;;;;;;17.87;66.27;100087.00;6192582;23;20024;-82
2022/05/29 08:41:29;;;;;;;6.45;3.00;;;;;;;19.30;67.74;100311.34;6192756;23;20023;-80
2022/05/29 08:44:08;;;;;;;8.57;3.35;;;;;;;19.34;67.26;100307.19;6193135;23;20028;-82
2022/05/29 08:46:39;;;;;;;12.15;3.38;;;;;;;19.27;66.93;100283.97;6193163;23;20075;-81
2022/05/29 08:49:09;;;;;;;8.15;2.97;;;;;;;18.01;66.96;100072.63;6192907;23;20036;-82
2022/05/29 08:51:54;;;;;;;6.22;3.15;;;;;;;19.50;67.93;100295.25;6219312;23;20021;-82
2022/05/29 08:54:34;;;;;;;5.57;2.80;;;;;;;18.97;66.22;100227.78;6219094;23;20019;-82
2022/05/29 08:57:31;;;;;;;5.78;2.92;;;;;;;19.43;65.86;100294.41;6182885;23;20020;-82
2022/05/29 09:00:00;;;;;;;6.90;3.67;;;;;;;18.77;67.12;100172.03;6192741;23;20021;-79
2022/05/29 09:02:32;;;;;;;4.80;3.40;;;;;;;19.49;65.91;100293.59;6192917;23;20029;-79
2022/05/29 09:05:06;;;;;;;7.45;2.90;;;;;;;19.48;66.14;100291.09;6208896;23;20384;-79
2022/05/29 09:07:37;;;;;;;8.43;4.13;;;;;;;19.57;65.77;100297.97;6219035;23;20024;-82
2022/05/29 09:10:18;;;;;;;4.60;3.42;;;;;;;18.31;66.84;100099.22;6209259;23;20075;-81
2022/05/29 09:12:53;;;;;;;11.73;4.10;;;;;;;18.69;66.48;100128.31;6219087;23;20013;-81
2022/05/29 09:15:37;;;;;;;9.63;4.15;;;;;;;18.40;65.91;100087.28;6193461;23;20030;-81
2022/05/29 09:18:18;;;;;;;13.20;4.47;;;;;;;18.83;66.64;100170.41;6192389;23;20692;-80
2022/05/29 09:20:53;;;;;;;10.35;4.80;;;;;;;19.58;67.15;100286.97;6182423;23;20028;-81
2022/05/29 09:23:44;;;;;;;9.25;3.97;;;;;;;19.40;68.57;100284.88;6192117;23;20076;-82
2022/05/29 09:26:17;;;;;;;17.05;5.30;;;;;;;19.49;68.45;100295.44;6182840;23;20028;-81
2022/05/29 09:28:45;;;;;;;9.30;5.60;;;;;;;18.86;66.87;100218.44;6182289;23;20104;-81
2022/05/29 09:31:18;;;;;;;7.75;5.50;;;;;;;19.19;67.19;100266.16;6192355;23;20021;-83
2022/05/29 09:33:46;;;;;;;10.48;5.57;;;;;;;19.20;68.63;100255.19;6182757;23;20343;-82
2022/05/29 09:36:24;;;;;;;7.03;5.35;;;;;;;19.40;68.22;100301.00;6192117;23;20216;-81
2022/05/29 09:39:01;;;;;;;9.40;5.38;;;;;;;19.30;66.82;100272.84;6191489;23;20024;-81
2022/05/29 09:41:36;;;;;;;8.95;5.03;;;;;;;19.27;67.58;100279.41;6208463;23;20082;-82
2022/05/29 09:44:21;;;;;;;8.20;5.30;;;;;;;18.88;67.87;100200.22;6219278;23;20020;-79
2022/05/29 09:46:55;;;;;;;10.98;6.05;;;;;;;19.51;67.09;100279.91;6192626;23;20480;-81
2022/05/29 09:49:41;;;;;;;11.65;5.65;;;;;;;19.11;65.59;100207.16;6208773;23;20395;-81
2022/05/29 09:52:16;;;;;;;8.18;5.88;;;;;;;19.69;66.62;100306.31;6192584;23;20032;-81
2022/05/29 09:54:59;;;;;;;5.93;5.32;;;;;;;19.58;68.26;100294.22;6192546;23;20434;-81
2022/05/29 09:57:27;;;;;;;9.68;6.10;;;;;;;19.45;68.40;100303.09;6219017;23;20024;-82
2022/05/29 10:00:00;;;;;;;6.72;5.82;;;;;;;19.41;68.69;100312.59;6183396;23;20031;-81
2022/05/29 10:02:37;;;;;;;10.60;5.88;;;;;;;18.56;70.44;100172.94;6189717;23;20047;-80
2022/05/29 10:05:09;;;;;;;9.90;5.93;;;;;;;18.54;70.17;100160.72;6188863;23;20020;-82
2022/05/29 10:07:42;;;;;;;9.07;6.32;;;;;;;18.88;68.95;100221.72;6183168;23;20024;-82
2022/05/29 10:10:27;;;;;;;9.20;5.50;;;;;;;19.35;67.39;100281.13;6182537;23;20048;-82
2022/05/29 10:12:57;;;;;;;6.57;5.20;;;;;;;19.37;67.57;100296.03;6183448;23;20103;-81
2022/05/29 10:15:27;;;;;;;11.88;5.30;;;;;;;19.56;67.60;100298.97;6192818;23;20486;-81
2022/05/29 10:17:56;;;;;;;15.00;5.25;;;;;;;19.40;67.47;100282.16;6192925;23;20029;-81
2022/05/29 10:20:34;;;;;;;8.60;5.40;;;;;;;19.17;67.23;100233.22;6218918;23;20024;-82
2022/05/29 10:23:03;;;;;;;6.00;5.20;;;;;;;19.38;67.67;100270.78;6191908;23;20071;-79
2022/05/29 10:25:34;;;;;;;9.18;5.35;;;;;;;19.59;68.01;100296.72;6191957;23;20024;-80
2022/05/29 10:28:09;;;;;;;10.95;5.53;;;;;;;18.10;68.47;100058.00;6181830;23;20082;-81
2022/05/29 10:30:44;;;;;;;12.98;5.75;;;;;;;19.33;68.02;100257.09;6191820;23;20349;-81
2022/05/29 10:33:23;;;;;;;10.75;6.20;;;;;;;19.35;67.46;100265.81;6181669;23;20020;-80
2022/05/29 10:35:55;;;;;;;6.20;5.55;;;;;;;19.65;67.50;100292.38;6218550;23;20680;-79
2022/05/29 10:38:28;;;;;;;10.70;5.43;;;;;;;19.29;67.24;100228.91;6181297;23;20523;-81
2022/05/29 10:40:58;;;;;;;10.40;5.78;;;;;;;19.52;69.40;100286.97;6191136;23;20392;-81
2022/05/29 10:43:43;;;;;;;7.57;6.80;;;;;;;19.68;71.29;100300.09;6191411;23;20028;-82
2022/05/29 10:46:26;;;;;;;7.65;6.85;;;;;;;19.60;72.17;100289.47;6191655;23;20334;-80
2022/05/29 10:49:26;;;;;;;10.27;6.13;;;;;;;19.57;73.04;100298.78;6192507;23;20040;-81
2022/05/29 10:52:23;;;;;;;8.90;6.60;;;;;;;19.60;72.81;100305.63;6181886;23;20083;-81
2022/05/29 10:55:20;;;;;;;8.93;6.38;;;;;;;19.46;72.36;100279.69;6191329;23;20070;-81
2022/05/29 10:57:56;;;;;;;7.45;6.50;;;;;;;19.49;71.81;100298.13;6181503;23;20016;-82
2022/05/29 11:00:38;;;;;;;7.95;6.03;;;;;;;19.51;72.95;100296.06;6181043;23;20071;-81
2022/05/29 11:03:34;;;;;;;6.03;5.43;;;;;;;19.52;72.06;100297.75;6181057;23;20263;-81
2022/05/29 11:06:17;;;;;;;5.68;5.13;;;;;;;19.14;71.50;100239.03;6181572;23;20024;-81
2022/05/29 11:08:56;;;;;;;6.65;5.93;;;;;;;19.06;72.01;100231.13;6190140;23;20046;-80
2022/05/29 11:11:41;;;;;;;6.10;5.55;;;;;;;19.06;72.10;100242.72;6205912;23;20035;-80
2022/05/29 11:14:20;;;;;;;5.45;4.95;;;;;;;17.89;72.08;100064.28;6191283;23;20075;-81
2022/05/29 11:17:05;;;;;;;8.80;5.70;;;;;;;19.37;72.10;100304.13;6216745;23;20273;-81
2022/05/29 11:19:47;;;;;;;7.38;6.00;;;;;;;19.33;72.66;100300.16;6181835;23;20070;-81
2022/05/29 11:22:30;;;;;;;9.07;5.68;;;;;;;19.34;73.28;100301.81;6181518;23;20035;-82
2022/05/29 11:25:10;;;;;;;6.40;5.45;;;;;;;19.23;72.43;100272.78;6191186;23;20017;-79
2022/05/29 11:28:08;;;;;;;8.63;6.13;;;;;;;19.31;72.78;100298.69;6192033;23;20021;-81
2022/05/29 11:30:41;;;;;;;6.45;5.82;;;;;;;19.45;72.06;100305.78;6191427;23;20103;-81
2022/05/29 11:33:29;;;;;;;8.10;6.53;;;;;;;19.37;71.84;100298.72;6181467;23;20020;-82
2022/05/29 11:36:09;;;;;;;9.57;6.97;;;;;;;19.15;74.02;100267.56;6191833;23;20021;-80
2022/05/29 11:39:13;;;;;;;6.93;5.90;;;;;;;19.32;74.87;100295.81;6192137;23;20032;-81
2022/05/29 11:41:50;;;;;;;5.60;4.38;;;;;;;19.18;73.29;100276.09;6182680;23;20031;-80
2022/05/29 11:44:25;;;;;;;5.57;4.57;;;;;;;18.86;73.73;100266.84;6198168;23;20008;-82
2022/05/29 11:52:52;;;;;;;6.88;4.43;;;;;;;18.80;75.36;100278.38;6242433;23;20012;-82
2022/05/29 11:55:25;;;;;;;6.18;4.93;;;;;;;18.79;75.58;100292.88;6218678;23;20465;-81
2022/05/29 11:58:07;;;;;;;8.80;5.00;;;;;;;18.83;75.27;100294.09;6188555;23;20392;-82
2022/05/29 12:00:46;;;;;;;5.55;5.05;;;;;;;18.81;75.43;100289.97;6194055;23;20021;-82
2022/05/29 12:03:43;;;;;;;7.57;5.88;;;;;;;18.64;75.36;100273.28;6187915;23;20025;-81
2022/05/29 12:06:39;;;;;;;5.63;5.20;;;;;;;18.76;76.23;100288.72;6188865;23;20017;-81
2022/05/29 12:09:20;;;;;;;7.85;5.22;;;;;;;18.78;75.50;100291.19;6179571;23;20076;-81
2022/05/29 12:11:55;;;;;;;5.55;5.05;;;;;;;18.80;74.74;100294.50;6189198;23;20399;-82
2022/05/29 12:14:43;;;;;;;7.13;5.50;;;;;;;18.20;76.02;100209.94;6178761;23;20025;-81
2022/05/29 12:17:14;;;;;;;8.93;5.40;;;;;;;17.75;76.67;100131.50;6189084;23;20032;-81
2022/05/29 12:19:49;;;;;;;8.05;6.32;;;;;;;18.74;75.58;100297.97;6189288;23;20021;-82
2022/05/29 12:22:22;;;;;;;5.70;5.20;;;;;;;18.71;76.13;100282.22;6190104;23;20025;-80
2022/05/29 12:24:50;;;;;;;6.78;6.00;;;;;;;18.70;75.93;100272.50;6190410;23;20021;-81